TimeEST,TemperatureF,Dew PointF,Humidity,Sea Level PressureIn,VisibilityMPH,Wind Direction,Wind SpeedMPH,Gust SpeedMPH,PrecipitationIn,Events,Conditions,WindDirDegrees,DateUTC
12:54 AM,19.9,5.0,52,30.17,10.0,WNW,16.1,23.0,N/A,,Mostly Cloudy,300,2013-02-18 05:54:00
1:54 AM,19.9,7.0,57,30.17,10.0,NW,21.9,32.2,N/A,,Mostly Cloudy,310,2013-02-18 06:54:00
2:54 AM,19.9,6.1,55,30.17,10.0,NW,24.2,31.1,N/A,,Clear,310,2013-02-18 07:54:00
4:54 AM,19.0,6.1,57,30.23,10.0,West,13.8,-,N/A,,Clear,280,2013-02-18 09:54:00
5:54 AM,19.0,6.1,57,30.26,10.0,WNW,10.4,-,N/A,,Clear,300,2013-02-18 10:54:00
6:54 AM,18.0,7.0,62,30.29,10.0,NW,10.4,-,N/A,,Clear,320,2013-02-18 11:54:00
7:54 AM,21.0,6.1,53,30.32,10.0,WNW,6.9,-,N/A,,Clear,290,2013-02-18 12:54:00
8:54 AM,23.0,6.1,48,30.34,10.0,WNW,11.5,-,N/A,,Clear,300,2013-02-18 13:54:00
9:54 AM,26.1,6.1,43,30.34,10.0,NW,6.9,-,N/A,,Clear,310,2013-02-18 14:54:00
10:54 AM,28.0,7.0,41,30.35,10.0,Variable,5.8,-,N/A,,Clear,0,2013-02-18 15:54:00
11:54 AM,30.0,10.0,43,30.33,10.0,WSW,9.2,17.3,N/A,,Clear,250,2013-02-18 16:54:00
12:54 PM,32.0,10.0,40,30.29,10.0,West,10.4,-,N/A,,Clear,260,2013-02-18 17:54:00
1:54 PM,34.0,10.0,37,30.26,10.0,West,8.1,17.3,N/A,,Clear,280,2013-02-18 18:54:00
2:54 PM,36.0,10.0,34,30.24,10.0,SW,9.2,-,N/A,,Clear,230,2013-02-18 19:54:00
3:54 PM,36.0,8.1,31,30.24,10.0,West,8.1,-,N/A,,Clear,260,2013-02-18 20:54:00
4:54 PM,35.1,8.1,33,30.23,10.0,WSW,6.9,-,N/A,,Clear,250,2013-02-18 21:54:00
5:54 PM,33.1,10.0,38,30.24,10.0,SSW,4.6,-,N/A,,Clear,210,2013-02-18 22:54:00
6:54 PM,32.0,10.9,42,30.25,10.0,South,3.5,-,N/A,,Clear,170,2013-02-18 23:54:00
7:54 PM,32.0,10.0,40,30.23,10.0,South,3.5,-,N/A,,Clear,170,2013-02-19 00:54:00
8:54 PM,30.9,12.0,46,30.22,10.0,South,3.5,-,N/A,,Clear,170,2013-02-19 01:54:00
9:54 PM,30.9,12.9,47,30.22,10.0,South,3.5,-,N/A,,Clear,180,2013-02-19 02:54:00
10:54 PM,30.9,14.0,50,30.20,10.0,SSW,3.5,-,N/A,,Clear,200,2013-02-19 03:54:00
11:54 PM,28.9,14.0,54,30.19,10.0,Calm,Calm,-,N/A,,Clear,0,2013-02-19 04:54:00